createdAt,value
2022-11-24T00:02:01.948Z,79.52
2022-11-24T00:04:28.253Z,78.77
2022-11-24T00:06:54.507Z,78.55
2022-11-24T00:09:20.757Z,79.76
2022-11-24T00:11:46.989Z,79.24
2022-11-24T00:14:13.302Z,79.32
2022-11-24T00:16:39.568Z,79.22
2022-11-24T00:19:05.823Z,78.71
2022-11-24T00:21:32.048Z,77.54
2022-11-24T00:23:58.273Z,76.98
2022-11-24T00:26:24.520Z,77.90
2022-11-24T00:28:50.754Z,79.45
2022-11-24T00:31:17.758Z,78.13
2022-11-24T00:33:44.180Z,76.96
2022-11-24T00:36:10.408Z,77.26
2022-11-24T00:38:36.648Z,75.98
2022-11-24T00:41:02.901Z,76.23
2022-11-24T00:43:29.126Z,78.00
2022-11-24T00:45:55.475Z,76.87
2022-11-24T00:48:21.802Z,78.96
2022-11-24T00:50:48.046Z,77.06
2022-11-24T00:53:14.298Z,76.13
2022-11-24T00:55:40.542Z,75.89
2022-11-24T00:58:06.788Z,74.99
2022-11-24T01:00:33.042Z,75.91
2022-11-24T01:02:59.316Z,76.51
2022-11-24T01:05:25.592Z,76.45
2022-11-24T01:07:51.875Z,75.06
2022-11-24T01:10:18.141Z,75.31
2022-11-24T01:12:44.347Z,76.86
2022-11-24T01:15:10.581Z,76.58
2022-11-24T01:17:36.834Z,76.72
2022-11-24T01:20:03.059Z,76.11
2022-11-24T01:22:29.312Z,77.51
2022-11-24T01:24:55.561Z,76.32
2022-11-24T01:27:21.790Z,77.05
2022-11-24T01:29:48.039Z,80.24
2022-11-24T01:32:14.278Z,79.49
2022-11-24T01:34:40.494Z,78.43
2022-11-24T01:37:06.722Z,79.26
2022-11-24T01:39:32.967Z,78.45
2022-11-24T01:41:59.203Z,79.29
2022-11-24T01:44:25.425Z,77.98
2022-11-24T01:46:51.664Z,77.23
2022-11-24T01:49:17.885Z,77.39
2022-11-24T01:51:44.111Z,76.22
2022-11-24T01:54:10.336Z,75.26
2022-11-24T01:56:36.577Z,73.32
2022-11-24T01:59:02.808Z,72.92
2022-11-24T02:01:29.138Z,72.67
2022-11-24T02:03:55.467Z,71.09
2022-11-24T02:06:21.698Z,69.93
2022-11-24T02:08:47.920Z,70.01
2022-11-24T02:11:14.148Z,70.91
2022-11-24T02:13:40.400Z,74.60
2022-11-24T02:16:06.685Z,76.04
2022-11-24T02:18:32.949Z,74.65
2022-11-24T02:20:59.215Z,74.03
2022-11-24T02:23:25.458Z,74.48
2022-11-24T02:25:51.680Z,73.96
2022-11-24T02:28:17.917Z,72.87
2022-11-24T02:30:44.149Z,72.85
2022-11-24T02:33:10.401Z,70.51
2022-11-24T02:35:36.764Z,71.66
2022-11-24T02:38:03.011Z,71.70
2022-11-24T02:40:29.248Z,73.01
2022-11-24T02:42:55.490Z,73.14
2022-11-24T02:45:21.731Z,72.42
2022-11-24T02:47:47.959Z,71.61
2022-11-24T02:50:14.199Z,72.12
2022-11-24T02:52:40.433Z,71.33
2022-11-24T02:55:06.660Z,70.97
2022-11-24T02:57:32.894Z,66.91
2022-11-24T02:59:59.126Z,67.30
2022-11-24T03:02:25.424Z,68.63
2022-11-24T03:04:51.798Z,69.55
2022-11-24T03:07:18.051Z,69.76
2022-11-24T03:09:44.299Z,69.86
2022-11-24T03:12:10.565Z,70.86
2022-11-24T03:14:37.101Z,69.98
2022-11-24T03:17:03.396Z,70.94
2022-11-24T03:19:29.645Z,72.27
2022-11-24T03:21:55.893Z,71.56
2022-11-24T03:24:22.113Z,71.71
2022-11-24T03:26:48.347Z,71.07
2022-11-24T03:29:14.586Z,70.82
2022-11-24T03:31:40.899Z,70.17
2022-11-24T03:34:07.181Z,70.92
2022-11-24T03:36:33.441Z,70.06
2022-11-24T03:38:59.683Z,69.62
2022-11-24T03:41:25.953Z,69.04
2022-11-24T03:43:52.202Z,69.66
2022-11-24T03:46:18.511Z,69.53
2022-11-24T03:48:44.832Z,68.55
2022-11-24T03:51:11.075Z,69.07
2022-11-24T03:53:37.287Z,69.08
2022-11-24T03:56:03.524Z,68.26
2022-11-24T03:58:29.767Z,67.71
2022-11-24T04:00:55.991Z,68.01
2022-11-24T04:03:22.292Z,68.49
2022-11-24T04:05:48.509Z,70.93
2022-11-24T04:08:14.754Z,70.80
2022-11-24T04:10:41.024Z,70.22
2022-11-24T04:13:27.231Z,70.55
2022-11-24T04:16:06.949Z,69.52
2022-11-24T04:18:45.666Z,68.99
2022-11-24T04:21:11.912Z,69.37
2022-11-24T04:23:38.178Z,70.43
2022-11-24T04:26:04.408Z,71.59
2022-11-24T04:28:30.642Z,73.49
2022-11-24T04:30:56.924Z,72.38
2022-11-24T04:33:23.184Z,72.31
2022-11-24T04:35:49.430Z,75.30
2022-11-24T04:39:23.025Z,73.51
2022-11-24T04:41:01.872Z,72.85
2022-11-24T04:43:28.124Z,71.29
2022-11-24T04:45:54.373Z,71.21
2022-11-24T04:48:20.613Z,73.01
2022-11-24T04:50:46.863Z,71.79
2022-11-24T04:53:13.101Z,72.78
2022-11-24T04:55:39.405Z,72.59
2022-11-24T04:58:05.633Z,72.12
2022-11-24T05:00:31.856Z,70.99
2022-11-24T05:02:58.114Z,69.66
2022-11-24T05:05:24.377Z,69.00
2022-11-24T05:07:50.621Z,69.11
2022-11-24T05:10:16.892Z,68.74
2022-11-24T05:12:48.405Z,68.09
2022-11-24T05:15:17.373Z,68.68
2022-11-24T05:17:43.626Z,69.27
2022-11-24T05:20:09.863Z,70.55
2022-11-24T05:22:36.081Z,69.92
2022-11-24T05:25:02.299Z,69.81
2022-11-24T05:27:28.519Z,69.28
2022-11-24T05:29:54.767Z,68.80
2022-11-24T05:32:21.005Z,69.85
2022-11-24T05:34:47.228Z,70.38
2022-11-24T05:37:13.463Z,69.66
2022-11-24T05:39:39.682Z,67.27
2022-11-24T05:42:05.916Z,66.79
2022-11-24T05:44:32.532Z,66.26
2022-11-24T05:46:59.111Z,66.14
2022-11-24T05:49:25.487Z,66.52
2022-11-24T05:51:51.724Z,66.43
2022-11-24T05:54:17.979Z,66.33
2022-11-24T05:56:44.202Z,65.77
2022-11-24T05:59:10.428Z,66.18
2022-11-24T06:01:36.808Z,65.82
2022-11-24T06:04:03.208Z,66.57
2022-11-24T06:06:29.438Z,65.17
2022-11-24T06:08:55.674Z,64.06
2022-11-24T06:11:21.973Z,65.25
2022-11-24T06:13:48.304Z,66.57
2022-11-24T06:16:14.945Z,66.72
2022-11-24T06:18:41.257Z,65.31
2022-11-24T06:21:11.789Z,65.66
2022-11-24T06:23:38.377Z,68.58
2022-11-24T06:26:06.080Z,69.17
2022-11-24T06:28:32.339Z,68.97
2022-11-24T06:30:58.606Z,68.15
2022-11-24T06:33:24.846Z,69.79
2022-11-24T06:35:51.077Z,69.25
2022-11-24T06:38:22.919Z,68.72
2022-11-24T06:40:50.473Z,67.87
2022-11-24T06:43:16.696Z,68.02
2022-11-24T06:45:42.961Z,67.77
2022-11-24T06:48:09.217Z,67.90
2022-11-24T06:50:35.447Z,67.45
2022-11-24T06:53:01.695Z,67.75
2022-11-24T06:55:27.940Z,66.93
2022-11-24T06:57:54.165Z,66.08
2022-11-24T07:17:13.960Z,63.22
2022-11-24T07:19:42.395Z,64.07
2022-11-24T07:22:11.036Z,64.36
2022-11-24T07:24:37.542Z,64.16
2022-11-24T07:27:03.868Z,63.74
2022-11-24T07:29:30.097Z,63.87
2022-11-24T07:31:59.567Z,63.89
2022-11-24T07:34:28.644Z,63.71
2022-11-24T07:59:10.466Z,63.22
2022-11-24T08:01:36.956Z,62.56
2022-11-24T08:04:03.453Z,61.49
2022-11-24T08:14:44.644Z,62.88
2022-11-24T08:17:11.009Z,61.98
2022-11-24T08:19:37.307Z,62.79
2022-11-24T08:22:03.533Z,62.27
2022-11-24T08:24:29.772Z,60.10
2022-11-24T08:26:55.996Z,59.43
2022-11-24T08:29:22.246Z,58.48
2022-11-24T08:31:48.512Z,58.40
2022-11-24T08:34:14.767Z,57.23
2022-11-24T08:36:41.050Z,56.97
2022-11-24T08:39:07.303Z,57.58
2022-11-24T08:41:33.529Z,57.71
2022-11-24T08:43:59.769Z,56.99
2022-11-24T08:46:26.107Z,55.84
2022-11-24T08:48:52.414Z,56.08
2022-11-24T08:51:18.633Z,56.74
2022-11-24T08:53:44.867Z,56.43
2022-11-24T08:56:11.107Z,56.83
2022-11-24T08:58:37.420Z,56.52
2022-11-24T09:01:03.854Z,57.19
2022-11-24T09:03:30.129Z,56.17
2022-11-24T09:05:56.399Z,56.43
2022-11-24T09:08:22.672Z,58.55
2022-11-24T09:10:48.909Z,59.29
2022-11-24T09:13:15.133Z,62.65
2022-11-24T09:15:41.364Z,68.64
2022-11-24T09:18:07.613Z,71.45
2022-11-24T09:20:33.862Z,71.38
2022-11-24T09:23:00.116Z,68.50
2022-11-24T09:25:26.368Z,66.71
2022-11-24T09:27:52.629Z,64.90
2022-11-24T09:30:18.876Z,64.21
2022-11-24T09:32:45.140Z,62.89
2022-11-24T09:35:11.383Z,62.25
2022-11-24T09:37:37.629Z,62.42
2022-11-24T09:40:03.885Z,61.22
2022-11-24T09:42:30.313Z,59.20
2022-11-24T09:44:58.014Z,60.34
2022-11-24T09:47:24.247Z,59.33
2022-11-24T09:49:51.671Z,59.36
2022-11-24T10:14:59.910Z,59.25
2022-11-24T10:17:29.147Z,57.49
2022-11-24T10:34:00.520Z,57.87
2022-11-24T10:36:26.803Z,57.83
2022-11-24T10:38:53.022Z,57.79
2022-11-24T10:41:19.258Z,58.40
2022-11-24T10:43:47.755Z,56.83
2022-11-24T10:54:26.678Z,57.83
2022-11-24T11:02:30.586Z,56.86
2022-11-24T11:04:56.850Z,57.30
2022-11-24T11:07:23.178Z,58.09
2022-11-24T11:09:49.464Z,55.89
2022-11-24T11:12:45.137Z,56.21
2022-11-24T11:15:02.325Z,55.41
2022-11-24T11:17:28.652Z,55.13
2022-11-24T11:20:01.667Z,55.66
2022-11-24T11:22:28.724Z,55.69
2022-11-24T11:24:54.965Z,56.05
2022-11-24T11:27:21.434Z,55.67
2022-11-24T11:35:20.145Z,56.94
2022-11-24T11:37:46.390Z,57.35
2022-11-24T11:40:13.837Z,57.48
2022-11-24T11:45:26.575Z,57.87
2022-11-24T11:47:52.863Z,57.18
2022-11-24T11:50:19.155Z,56.73
2022-11-24T11:52:45.433Z,57.57
2022-11-24T11:55:11.654Z,56.32
2022-11-24T11:57:37.890Z,56.49
2022-11-24T12:00:04.137Z,56.54
2022-11-24T12:02:30.472Z,56.90
2022-11-24T12:04:56.835Z,57.68
2022-11-24T12:07:23.184Z,57.70
2022-11-24T12:09:49.494Z,57.69
2022-11-24T12:12:15.986Z,57.36
2022-11-24T12:14:42.723Z,56.73
2022-11-24T12:17:09.038Z,59.71
2022-11-24T12:19:35.520Z,59.53
2022-11-24T12:22:01.920Z,60.17
2022-11-24T12:24:28.227Z,59.60
2022-11-24T12:26:54.488Z,58.63
2022-11-24T12:29:20.727Z,59.65
2022-11-24T12:31:47.057Z,60.44
2022-11-24T12:34:13.350Z,60.63
2022-11-24T12:36:39.580Z,60.50
2022-11-24T12:39:07.015Z,60.54
2022-11-24T12:41:41.808Z,60.06
2022-11-24T12:44:08.612Z,59.98
2022-11-24T12:46:34.904Z,59.74
2022-11-24T12:49:01.171Z,58.30
2022-11-24T12:51:27.464Z,58.35
2022-11-24T12:53:53.718Z,59.63
2022-11-24T12:56:19.972Z,58.63
2022-11-24T12:58:46.287Z,57.63
2022-11-24T13:01:16.392Z,57.26
2022-11-24T13:03:43.212Z,56.40
2022-11-24T13:06:09.475Z,56.41
2022-11-24T13:08:35.719Z,56.17
2022-11-24T13:11:02.004Z,55.79
2022-11-24T13:13:28.222Z,56.92
2022-11-24T13:18:40.808Z,58.81
2022-11-24T13:21:07.284Z,58.97
2022-11-24T13:23:33.513Z,59.50
2022-11-24T13:25:59.738Z,58.59
2022-11-24T13:28:54.119Z,58.76
2022-11-24T13:31:12.285Z,58.46
2022-11-24T13:33:38.581Z,57.80
2022-11-24T13:36:04.811Z,57.72
2022-11-24T13:38:31.089Z,57.64
2022-11-24T13:41:13.356Z,57.03
2022-11-24T13:43:43.687Z,56.80
2022-11-24T13:46:10.053Z,56.12
2022-11-24T13:48:36.531Z,56.39
2022-11-24T13:51:03.164Z,57.19
2022-11-24T13:53:29.416Z,57.95
2022-11-24T13:58:52.096Z,56.61
2022-11-24T14:16:01.060Z,57.65
2022-11-24T14:21:15.986Z,58.05
2022-11-24T14:23:42.193Z,56.98
2022-11-24T14:28:43.670Z,56.18
2022-11-24T14:31:09.963Z,55.12
2022-11-24T14:33:36.452Z,56.00
2022-11-24T14:36:02.674Z,57.84
2022-11-24T14:38:28.913Z,59.71
2022-11-24T14:40:55.142Z,59.13
2022-11-24T14:46:10.237Z,58.76
2022-11-24T15:01:40.014Z,59.38
2022-11-24T15:04:09.864Z,59.39
2022-11-24T15:06:37.975Z,59.79
2022-11-24T15:09:04.227Z,60.19
2022-11-24T15:11:31.866Z,60.30
2022-11-24T15:13:58.105Z,60.41
2022-11-24T15:16:24.377Z,60.40
2022-11-24T15:19:00.949Z,59.84
2022-11-24T15:21:27.410Z,60.20
2022-11-24T15:23:53.872Z,60.24
2022-11-24T15:26:20.348Z,60.41
2022-11-24T15:28:46.791Z,60.52
2022-11-24T15:31:13.160Z,61.00
2022-11-24T15:33:39.438Z,59.95
2022-11-24T15:36:05.644Z,59.82
2022-11-24T15:38:31.972Z,60.33
2022-11-24T15:40:58.240Z,61.66
2022-11-24T15:43:24.480Z,61.25
2022-11-24T15:45:50.719Z,61.23
2022-11-24T15:48:18.342Z,61.67
2022-11-24T15:50:44.742Z,61.97
2022-11-24T15:53:11.090Z,61.26
2022-11-24T15:55:37.330Z,60.98
2022-11-24T15:58:03.580Z,61.16
2022-11-24T16:00:29.801Z,61.30
2022-11-24T16:02:56.085Z,61.43
2022-11-24T16:05:22.328Z,61.53
2022-11-24T16:07:48.660Z,61.97
2022-11-24T16:10:14.996Z,62.00
2022-11-24T16:12:41.253Z,61.58
2022-11-24T16:15:07.485Z,62.28
2022-11-24T16:17:33.748Z,61.98
2022-11-24T16:20:00.740Z,60.51
2022-11-24T16:22:27.319Z,59.27
2022-11-24T16:24:53.560Z,60.46
2022-11-24T16:27:19.812Z,59.79
2022-11-24T16:29:46.052Z,59.38
2022-11-24T16:32:12.286Z,59.66
2022-11-24T16:34:38.528Z,59.53
2022-11-24T16:37:04.764Z,59.92
2022-11-24T16:39:30.998Z,60.25
2022-11-24T16:41:57.235Z,60.87
2022-11-24T16:44:23.489Z,58.94
2022-11-24T16:46:49.726Z,58.10
2022-11-24T16:49:15.968Z,57.62
2022-11-24T16:51:42.232Z,58.06
2022-11-24T16:54:08.444Z,57.82
2022-11-24T16:56:34.673Z,57.82
2022-11-24T16:59:00.921Z,57.49
2022-11-24T17:01:27.274Z,57.54
2022-11-24T17:03:53.588Z,56.35
2022-11-24T17:06:19.841Z,55.07
2022-11-24T17:08:46.071Z,54.73
2022-11-24T17:11:12.386Z,54.02
2022-11-24T17:13:38.658Z,54.70
2022-11-24T17:16:04.946Z,54.95
2022-11-24T17:18:31.204Z,55.12
2022-11-24T17:20:57.425Z,55.20
2022-11-24T17:23:23.653Z,55.05
2022-11-24T17:25:49.896Z,54.60
2022-11-24T17:28:16.117Z,54.17
2022-11-24T17:30:42.355Z,53.54
2022-11-24T17:33:08.600Z,52.07
2022-11-24T17:35:34.831Z,51.44
2022-11-24T17:38:01.073Z,51.17
2022-11-24T17:40:28.765Z,51.74
2022-11-24T17:42:55.430Z,51.48
2022-11-24T17:45:21.644Z,53.32
2022-11-24T17:47:47.865Z,53.30
2022-11-24T17:50:14.124Z,53.76
2022-11-24T17:52:40.355Z,53.24
2022-11-24T17:55:06.586Z,53.60
2022-11-24T17:57:32.837Z,52.38
2022-11-24T17:59:59.195Z,54.01
2022-11-24T18:02:25.512Z,55.97
2022-11-24T18:04:51.796Z,55.78
2022-11-24T18:07:18.063Z,54.75
2022-11-24T18:09:44.336Z,55.56
2022-11-24T18:12:10.578Z,55.95
2022-11-24T18:14:37.035Z,56.15
2022-11-24T18:17:03.526Z,55.99
2022-11-24T18:19:29.762Z,53.66
2022-11-24T18:21:56.013Z,54.88
2022-11-24T18:24:24.249Z,55.67
2022-11-24T18:26:50.660Z,56.00
2022-11-24T18:29:16.877Z,55.68
2022-11-24T18:31:43.139Z,54.73
2022-11-24T18:34:09.424Z,55.59
2022-11-24T18:36:35.685Z,54.94
2022-11-24T18:39:01.934Z,53.25
2022-11-24T18:41:28.189Z,54.34
2022-11-24T18:43:54.434Z,54.82
2022-11-24T18:46:20.775Z,55.21
2022-11-24T18:48:47.058Z,55.29
2022-11-24T18:51:13.292Z,56.23
2022-11-24T18:53:39.701Z,54.58
2022-11-24T18:56:05.959Z,54.27
2022-11-24T18:58:32.180Z,55.96
2022-11-24T19:00:58.549Z,56.29
2022-11-24T19:03:24.823Z,55.68
2022-11-24T19:05:51.053Z,55.26
2022-11-24T19:08:17.322Z,54.68
2022-11-24T19:10:43.561Z,55.78
2022-11-24T19:13:09.804Z,54.06
2022-11-24T19:15:36.037Z,54.38
2022-11-24T19:18:02.278Z,54.11
2022-11-24T19:20:28.494Z,54.27
2022-11-24T19:22:54.763Z,52.63
2022-11-24T19:25:21.012Z,53.20
2022-11-24T19:27:47.264Z,53.32
2022-11-24T19:30:13.515Z,52.22
2022-11-24T19:32:39.737Z,52.41
2022-11-24T19:35:05.968Z,53.39
2022-11-24T19:37:32.210Z,52.87
2022-11-24T19:39:58.418Z,53.11
2022-11-24T19:42:24.636Z,52.66
2022-11-24T19:44:56.173Z,52.26
2022-11-24T19:47:22.754Z,52.98
2022-11-24T19:49:48.976Z,52.48
2022-11-24T19:52:15.205Z,53.44
2022-11-24T19:54:41.425Z,53.76
2022-11-24T19:57:07.651Z,53.95
2022-11-24T19:59:33.881Z,53.93
2022-11-24T20:02:00.276Z,53.64
2022-11-24T20:04:26.581Z,54.03
2022-11-24T20:06:52.830Z,55.01
2022-11-24T20:09:19.065Z,54.34
2022-11-24T20:11:45.316Z,54.08
2022-11-24T20:14:11.535Z,53.73
2022-11-24T20:16:37.796Z,54.77
2022-11-24T20:19:04.041Z,53.17
2022-11-24T20:21:30.289Z,53.91
2022-11-24T20:23:56.530Z,54.58
2022-11-24T20:26:22.758Z,52.38
2022-11-24T20:28:48.987Z,51.32
2022-11-24T20:31:15.264Z,51.42
2022-11-24T20:33:41.531Z,53.21
2022-11-24T20:36:07.763Z,51.34
2022-11-24T20:38:34.001Z,52.20
2022-11-24T20:41:03.471Z,53.18
2022-11-24T20:43:32.198Z,52.35
2022-11-24T20:45:58.509Z,50.27
2022-11-24T20:48:24.794Z,49.67
2022-11-24T20:50:51.556Z,49.02
2022-11-24T20:53:17.940Z,49.36
2022-11-24T20:55:44.174Z,51.83
2022-11-24T20:58:10.421Z,51.43
2022-11-24T21:00:36.695Z,51.55
2022-11-24T21:03:02.942Z,52.51
2022-11-24T21:05:29.170Z,52.32
2022-11-24T21:07:55.503Z,52.99
2022-11-24T21:10:21.788Z,53.06
2022-11-24T21:12:48.016Z,52.47
2022-11-24T21:15:14.262Z,52.41
2022-11-24T21:17:40.492Z,53.58
2022-11-24T21:20:06.746Z,54.19
2022-11-24T21:22:32.972Z,52.80
2022-11-24T21:24:59.198Z,52.65
2022-11-24T21:27:25.452Z,53.30
2022-11-24T21:29:51.698Z,53.14
2022-11-24T21:32:17.918Z,53.60
2022-11-24T21:34:44.136Z,52.47
2022-11-24T21:37:10.364Z,52.52
2022-11-24T21:39:36.698Z,52.57
2022-11-24T21:42:03.013Z,52.93
2022-11-24T21:44:29.243Z,52.44
2022-11-24T21:46:56.238Z,52.71
2022-11-24T21:49:22.642Z,53.23
2022-11-24T21:51:48.902Z,53.42
2022-11-24T21:54:15.148Z,52.83
2022-11-24T21:56:41.393Z,53.37
2022-11-24T21:59:07.640Z,53.39
2022-11-24T22:01:33.947Z,53.34
2022-11-24T22:04:00.241Z,52.91
2022-11-24T22:06:26.476Z,53.00
2022-11-24T22:08:52.689Z,53.52
2022-11-24T22:11:18.923Z,53.50
2022-11-24T22:13:45.145Z,53.63
2022-11-24T22:16:11.442Z,53.13
2022-11-24T22:18:37.724Z,51.58
2022-11-24T22:21:03.972Z,51.54
2022-11-24T22:23:30.206Z,51.44
2022-11-24T22:25:56.452Z,51.26
2022-11-24T22:28:22.702Z,52.04
2022-11-24T22:30:48.917Z,51.94
2022-11-24T22:33:15.143Z,52.00
2022-11-24T22:35:41.378Z,51.16
2022-11-24T22:38:07.626Z,51.34
2022-11-24T22:40:33.888Z,51.74
2022-11-24T22:43:00.123Z,51.09
2022-11-24T22:45:26.358Z,50.86
2022-11-24T22:47:52.627Z,51.21
2022-11-24T22:50:18.868Z,50.62
2022-11-24T22:52:45.104Z,50.79
2022-11-24T22:55:11.352Z,50.21
2022-11-24T22:57:37.587Z,50.34
2022-11-24T23:00:03.816Z,51.82
2022-11-24T23:02:30.076Z,52.78
2022-11-24T23:04:56.367Z,52.41
2022-11-24T23:07:22.634Z,52.16
2022-11-24T23:09:48.898Z,49.98
2022-11-24T23:12:15.147Z,49.30
2022-11-24T23:14:41.391Z,48.80
2022-11-24T23:17:07.628Z,48.27
2022-11-24T23:19:33.866Z,49.25
2022-11-24T23:22:00.091Z,49.19
2022-11-24T23:24:26.335Z,50.38
2022-11-24T23:26:52.580Z,51.92
2022-11-24T23:29:18.796Z,52.40
2022-11-24T23:31:45.057Z,54.81
2022-11-24T23:34:12.215Z,55.47
2022-11-24T23:36:38.434Z,54.70
2022-11-24T23:39:04.650Z,54.67
2022-11-24T23:41:30.895Z,53.28
2022-11-24T23:43:57.134Z,53.04
2022-11-24T23:46:23.411Z,52.86
2022-11-24T23:48:49.693Z,53.06
2022-11-24T23:51:15.926Z,53.55
2022-11-24T23:53:42.149Z,53.41
2022-11-24T23:56:08.382Z,53.40
2022-11-24T23:58:34.624Z,53.60
